createdAt,value
2022-08-05T00:02:17.522Z,1.70
2022-08-05T00:05:05.783Z,1.90
2022-08-05T00:08:05.311Z,1.40
2022-08-05T00:11:01.502Z,1.50
2022-08-05T00:13:39.539Z,1.60
2022-08-05T00:16:17.347Z,1.90
2022-08-05T00:19:55.410Z,2.00
2022-08-05T00:22:41.823Z,1.90
2022-08-05T00:25:45.662Z,1.80
2022-08-05T00:28:31.907Z,1.50
2022-08-05T00:31:10.956Z,1.80
2022-08-05T00:34:53.307Z,1.80
2022-08-05T00:37:11.882Z,2.20
2022-08-05T00:39:58.751Z,2.20
2022-08-05T00:42:41.699Z,1.70
2022-08-05T00:45:28.080Z,1.80
2022-08-05T00:48:27.475Z,1.80
2022-08-05T00:51:50.571Z,2.00
2022-08-05T00:54:36.791Z,1.90
2022-08-05T01:01:48.769Z,1.70
2022-08-05T01:04:59.987Z,1.90
2022-08-05T01:08:42.276Z,1.40
2022-08-05T01:11:13.871Z,1.60
2022-08-05T01:14:15.527Z,1.70
2022-08-05T01:17:08.176Z,1.50
2022-08-05T01:20:22.301Z,1.70
2022-08-05T01:23:14.438Z,1.70
2022-08-05T01:26:04.843Z,1.60
2022-08-05T01:29:05.122Z,1.50
2022-08-05T01:31:55.734Z,1.60
2022-08-05T01:34:46.846Z,1.50
2022-08-05T01:37:44.292Z,1.70
2022-08-05T01:40:34.768Z,1.60
2022-08-05T01:43:32.126Z,1.60
2022-08-05T01:46:46.706Z,1.40
2022-08-05T01:50:00.358Z,1.40
2022-08-05T01:53:17.543Z,2.00
2022-08-05T01:58:10.553Z,1.50
2022-08-05T02:00:11.588Z,1.60
2022-08-05T02:02:57.729Z,1.50
2022-08-05T02:06:24.023Z,1.90
2022-08-05T02:09:44.440Z,1.70
2022-08-05T02:12:37.598Z,1.80
2022-08-05T02:15:25.536Z,1.60
2022-08-05T02:18:31.307Z,1.60
2022-08-05T02:21:15.299Z,1.70
2022-08-05T02:24:05.917Z,1.40
2022-08-05T02:27:09.831Z,1.60
2022-08-05T02:29:59.751Z,1.70
2022-08-05T02:32:49.299Z,1.80
2022-08-05T02:35:59.096Z,2.00
2022-08-05T02:39:12.318Z,1.80
2022-08-05T02:42:09.312Z,1.70
2022-08-05T02:44:56.621Z,1.90
2022-08-05T02:48:07.282Z,1.50
2022-08-05T02:50:52.733Z,1.40
2022-08-05T02:54:04.451Z,2.00
2022-08-05T02:56:50.486Z,1.80
2022-08-05T03:00:04.050Z,1.60
2022-08-05T03:02:50.880Z,1.60
2022-08-05T03:06:55.444Z,2.10
2022-08-05T03:09:17.910Z,1.70
2022-08-05T03:12:11.672Z,1.70
2022-08-05T03:15:24.644Z,1.70
2022-08-05T03:18:08.923Z,1.60
2022-08-05T03:21:21.324Z,1.80
2022-08-05T03:24:30.456Z,1.60
2022-08-05T03:27:17.220Z,1.70
2022-08-05T03:30:08.121Z,1.70
2022-08-05T03:32:41.112Z,1.60
2022-08-05T03:36:00.169Z,1.50
2022-08-05T03:38:33.262Z,1.70
2022-08-05T03:42:27.004Z,1.60
2022-08-05T03:45:58.264Z,1.50
2022-08-05T03:48:48.827Z,1.90
2022-08-05T03:52:48.708Z,1.30
2022-08-05T03:56:04.748Z,1.90
2022-08-05T03:58:29.123Z,1.80
2022-08-05T04:01:04.241Z,1.90
2022-08-05T04:03:38.712Z,1.80
2022-08-05T04:06:13.798Z,1.50
2022-08-05T04:08:49.047Z,1.60
2022-08-05T04:11:50.629Z,1.50
2022-08-05T04:14:30.622Z,1.60
2022-08-05T04:17:23.203Z,1.50
2022-08-05T04:20:23.101Z,1.50
2022-08-05T04:23:08.197Z,2.20
2022-08-05T04:26:00.733Z,1.70
2022-08-05T04:28:51.380Z,1.70
2022-08-05T04:31:38.445Z,1.50
2022-08-05T04:34:35.230Z,1.60
2022-08-05T04:38:01.061Z,1.60
2022-08-05T04:40:50.875Z,1.40
2022-08-05T04:43:48.037Z,1.60
2022-08-05T04:46:39.451Z,1.60
2022-08-05T04:50:00.888Z,1.70
2022-08-05T04:52:47.761Z,1.70
2022-08-05T04:56:33.408Z,1.60
2022-08-05T04:58:35.875Z,1.80
2022-08-05T05:02:05.827Z,1.90
2022-08-05T05:04:51.504Z,1.50
2022-08-05T05:07:45.792Z,1.30
2022-08-05T05:10:55.858Z,1.40
2022-08-05T05:13:47.270Z,1.60
2022-08-05T05:17:00.541Z,1.50
2022-08-05T05:20:03.511Z,1.70
2022-08-05T05:22:47.169Z,1.70
2022-08-05T05:25:40.942Z,1.60
2022-08-05T05:28:22.147Z,1.80
2022-08-05T05:30:57.098Z,1.40
2022-08-05T05:33:59.872Z,1.40
2022-08-05T05:36:55.353Z,1.50
2022-08-05T05:39:47.030Z,1.50
2022-08-05T05:42:51.229Z,1.80
2022-08-05T05:45:27.026Z,1.60
2022-08-05T05:48:08.595Z,1.60
2022-08-05T05:51:25.514Z,1.80
2022-08-05T05:54:17.488Z,1.80
2022-08-05T05:57:13.780Z,1.40
2022-08-05T06:00:00.762Z,1.60
2022-08-05T06:02:43.436Z,1.60
2022-08-05T06:05:27.911Z,1.60
2022-08-05T06:08:12.402Z,1.40
2022-08-05T06:10:56.547Z,2.10
2022-08-05T06:14:42.651Z,2.00
2022-08-05T06:17:52.747Z,1.60
2022-08-05T06:20:47.961Z,1.90
2022-08-05T06:23:44.006Z,1.40
2022-08-05T06:26:39.443Z,1.70
2022-08-05T06:29:46.799Z,1.70
2022-08-05T06:32:47.117Z,1.80
2022-08-05T06:36:08.168Z,1.60
2022-08-05T06:38:58.381Z,1.60
2022-08-05T06:41:52.851Z,1.30
2022-08-05T06:44:27.898Z,1.70
2022-08-05T06:48:37.107Z,2.00
2022-08-05T06:52:04.121Z,1.60
2022-08-05T06:55:00.551Z,1.70
2022-08-05T06:57:57.676Z,1.60
2022-08-05T07:00:51.172Z,1.40
2022-08-05T07:03:42.419Z,1.60
2022-08-05T07:06:20.743Z,1.80
2022-08-05T07:09:12.348Z,1.50
2022-08-05T07:11:51.728Z,1.60
2022-08-05T07:14:49.121Z,1.70
2022-08-05T07:18:01.614Z,1.50
2022-08-05T07:20:50.818Z,1.60
2022-08-05T07:23:29.545Z,1.40
2022-08-05T07:26:13.995Z,1.40
2022-08-05T07:28:52.093Z,1.50
2022-08-05T07:31:54.558Z,1.50
2022-08-05T07:34:42.397Z,1.60
2022-08-05T07:37:21.249Z,1.60
2022-08-05T07:40:26.498Z,1.70
2022-08-05T07:43:24.932Z,1.40
2022-08-05T07:46:24.285Z,1.70
2022-08-05T07:49:05.358Z,1.60
2022-08-05T07:51:53.734Z,1.30
2022-08-05T08:02:16.733Z,1.50
2022-08-05T08:04:52.166Z,1.30
2022-08-05T08:07:59.544Z,1.30
2022-08-05T08:10:35.588Z,1.30
2022-08-05T08:13:09.585Z,1.20
2022-08-05T08:16:50.438Z,1.40
2022-08-05T08:18:35.930Z,2.10
2022-08-05T08:21:29.611Z,1.80
2022-08-05T08:24:05.175Z,1.30
2022-08-05T08:26:37.970Z,1.30
2022-08-05T08:30:03.606Z,1.30
2022-08-05T08:32:04.642Z,1.30
2022-08-05T08:34:42.780Z,1.20
2022-08-05T08:37:18.908Z,1.30
2022-08-05T08:39:50.769Z,1.20
2022-08-05T08:42:33.735Z,1.20
2022-08-05T08:45:23.752Z,1.00
2022-08-05T08:48:10.445Z,1.10
2022-08-05T08:51:07.717Z,1.00
2022-08-05T08:53:46.587Z,1.20
2022-08-05T08:56:19.586Z,1.10
2022-08-05T08:58:54.128Z,1.40
2022-08-05T09:01:25.791Z,1.10
2022-08-05T09:03:58.742Z,1.10
2022-08-05T09:06:33.317Z,1.40
2022-08-05T09:09:07.869Z,1.10
2022-08-05T09:11:53.341Z,0.90
2022-08-05T09:14:56.402Z,1.00
2022-08-05T09:17:42.860Z,0.90
2022-08-05T09:20:36.354Z,0.80
2022-08-05T09:23:18.677Z,0.90
2022-08-05T09:26:03.367Z,1.00
2022-08-05T09:28:38.699Z,1.00
2022-08-05T09:31:43.937Z,1.10
2022-08-05T09:34:06.599Z,1.10
2022-08-05T09:36:55.910Z,0.90
2022-08-05T09:39:45.773Z,0.70
2022-08-05T09:42:28.228Z,0.70
2022-08-05T09:45:17.737Z,1.00
2022-08-05T09:48:00.475Z,0.90
2022-08-05T09:50:44.723Z,0.80
2022-08-05T09:53:25.782Z,0.90
2022-08-05T09:56:04.526Z,0.70
2022-08-05T09:58:36.592Z,0.90
2022-08-05T10:01:31.574Z,0.80
2022-08-05T10:04:11.172Z,1.00
2022-08-05T10:06:54.972Z,0.90
2022-08-05T10:09:45.112Z,1.10
2022-08-05T10:12:28.021Z,1.00
2022-08-05T10:15:22.110Z,0.70
2022-08-05T10:18:12.095Z,0.90
2022-08-05T10:20:47.801Z,1.40
2022-08-05T10:23:55.108Z,0.70
2022-08-05T10:26:16.782Z,0.90
2022-08-05T10:28:49.571Z,1.00
2022-08-05T10:33:01.487Z,0.80
2022-08-05T10:34:17.173Z,0.90
2022-08-05T10:36:55.365Z,1.10
2022-08-05T10:39:59.137Z,0.80
2022-08-05T10:42:38.832Z,1.20
2022-08-05T10:45:23.556Z,1.00
2022-08-05T10:48:52.963Z,0.70
2022-08-05T10:52:00.506Z,1.10
2022-08-05T10:55:05.217Z,1.10
2022-08-05T10:57:41.612Z,1.10
2022-08-05T11:00:23.279Z,1.20
2022-08-05T11:03:23.831Z,1.00
2022-08-05T11:06:15.107Z,0.90
2022-08-05T11:09:32.167Z,1.00
2022-08-05T11:12:54.171Z,1.10
2022-08-05T11:16:00.540Z,1.10
2022-08-05T11:18:34.621Z,0.90
2022-08-05T11:21:26.379Z,1.10
2022-08-05T11:24:05.352Z,2.90
2022-08-05T11:27:09.427Z,1.10
2022-08-05T11:29:45.103Z,1.80
2022-08-05T11:32:32.859Z,1.10
2022-08-05T11:36:07.719Z,1.10
2022-08-05T11:38:57.551Z,1.30
2022-08-05T11:41:56.199Z,1.30
2022-08-05T11:44:52.801Z,1.10
2022-08-05T11:47:49.882Z,0.90
2022-08-05T11:50:20.593Z,1.00
2022-08-05T11:52:57.613Z,0.90
2022-08-05T11:55:32.145Z,1.30
2022-08-05T11:58:11.852Z,1.20
2022-08-05T12:00:44.090Z,1.00
2022-08-05T12:03:28.429Z,1.00
2022-08-05T12:06:09.816Z,1.00
2022-08-05T12:08:51.400Z,1.20
2022-08-05T12:11:28.147Z,1.10
2022-08-05T12:14:15.201Z,1.00
2022-08-05T12:16:49.301Z,0.90
2022-08-05T12:20:26.160Z,0.90
2022-08-05T12:27:56.945Z,1.30
2022-08-05T12:30:47.764Z,0.90
2022-08-05T12:33:27.422Z,0.90
2022-08-05T12:36:16.156Z,1.20
2022-08-05T12:38:55.767Z,1.20
2022-08-05T12:41:34.732Z,1.00
2022-08-05T12:44:14.383Z,1.40
2022-08-05T12:46:57.759Z,1.80
2022-08-05T12:50:04.623Z,1.90
2022-08-05T12:52:39.014Z,1.90
2022-08-05T12:55:28.662Z,2.10
2022-08-05T12:58:50.633Z,1.80
2022-08-05T13:02:03.019Z,1.80
2022-08-05T13:03:51.607Z,1.70
2022-08-05T13:06:23.407Z,1.70
2022-08-05T13:08:54.907Z,1.80
2022-08-05T13:12:03.172Z,1.90
2022-08-05T13:14:36.839Z,1.70
2022-08-05T13:17:31.623Z,1.80
2022-08-05T13:20:19.192Z,1.60
2022-08-05T13:23:00.064Z,1.50
2022-08-05T13:25:52.572Z,1.60
2022-08-05T13:28:23.510Z,1.70
2022-08-05T13:30:55.485Z,1.60
2022-08-05T13:34:21.549Z,1.60
2022-08-05T13:36:27.423Z,1.50
2022-08-05T13:40:16.839Z,1.40
2022-08-05T13:42:35.714Z,1.30
2022-08-05T13:45:14.008Z,1.50
2022-08-05T13:48:08.592Z,1.40
2022-08-05T13:50:41.904Z,1.30
2022-08-05T13:53:19.376Z,1.20
2022-08-05T13:56:00.196Z,1.30
2022-08-05T13:58:39.605Z,1.30
2022-08-05T14:01:11.578Z,1.20
2022-08-05T14:03:46.881Z,1.30
2022-08-05T14:06:25.747Z,1.10
2022-08-05T14:09:00.734Z,1.10
2022-08-05T14:12:04.189Z,1.20
2022-08-05T14:14:35.847Z,1.10
2022-08-05T14:17:17.800Z,1.10
2022-08-05T14:19:55.242Z,1.10
2022-08-05T14:22:30.480Z,1.20
2022-08-05T14:25:21.770Z,1.20
2022-08-05T14:27:54.704Z,1.00
2022-08-05T14:30:28.041Z,1.50
2022-08-05T14:33:09.814Z,1.10
2022-08-05T14:35:51.531Z,1.10
2022-08-05T14:38:32.267Z,1.10
2022-08-05T14:41:10.720Z,0.90
2022-08-05T14:43:59.191Z,1.00
2022-08-05T14:46:35.085Z,1.00
2022-08-05T14:49:08.484Z,0.80
2022-08-05T14:51:42.949Z,1.20
2022-08-05T14:54:28.753Z,0.80
2022-08-05T14:57:13.473Z,1.00
2022-08-05T14:59:45.402Z,0.80
2022-08-05T15:02:17.781Z,1.00
2022-08-05T15:04:49.950Z,1.00
2022-08-05T15:08:08.693Z,1.00
2022-08-05T15:10:13.874Z,0.90
2022-08-05T15:13:00.278Z,1.10
2022-08-05T15:15:53.974Z,1.20
2022-08-05T15:18:25.429Z,0.90
2022-08-05T15:21:32.731Z,0.90
2022-08-05T15:24:36.815Z,0.90
2022-08-05T15:27:13.942Z,1.00
2022-08-05T15:29:57.733Z,1.10
2022-08-05T15:32:31.488Z,1.00
2022-08-05T15:35:04.063Z,1.10
2022-08-05T15:38:32.613Z,0.90
2022-08-05T15:40:58.187Z,1.10
2022-08-05T15:43:25.440Z,1.00
2022-08-05T15:46:00.107Z,1.10
2022-08-05T15:48:39.018Z,1.10
2022-08-05T15:52:12.717Z,1.00
2022-08-05T15:54:20.714Z,1.20
2022-08-05T15:57:10.402Z,1.50
2022-08-05T15:59:42.690Z,1.50
2022-08-05T16:02:14.718Z,1.60
2022-08-05T16:04:52.957Z,1.60
2022-08-05T16:07:24.783Z,1.50
2022-08-05T16:10:07.096Z,1.30
2022-08-05T16:12:43.609Z,1.50
2022-08-05T16:15:18.512Z,1.20
2022-08-05T16:17:58.092Z,1.60
2022-08-05T16:20:30.261Z,1.20
2022-08-05T16:23:04.112Z,1.50
2022-08-05T16:25:41.515Z,1.40
2022-08-05T16:28:18.229Z,1.60
2022-08-05T16:30:50.462Z,1.70
2022-08-05T16:33:23.473Z,1.50
2022-08-05T16:36:01.075Z,1.60
2022-08-05T16:38:55.036Z,1.50
2022-08-05T16:42:14.415Z,1.70
2022-08-05T16:44:42.239Z,1.60
2022-08-05T16:47:24.722Z,1.60
2022-08-05T16:50:10.223Z,1.70
2022-08-05T16:52:45.300Z,1.70
2022-08-05T16:55:17.999Z,1.80
2022-08-05T16:58:01.388Z,2.20
2022-08-05T17:00:37.608Z,1.70
2022-08-05T17:03:19.770Z,2.20
2022-08-05T17:05:54.321Z,1.90
2022-08-05T17:08:36.017Z,2.00
2022-08-05T17:11:25.998Z,2.20
2022-08-05T17:14:05.174Z,2.20
2022-08-05T17:16:39.306Z,2.10
2022-08-05T17:19:13.584Z,2.50
2022-08-05T17:21:51.490Z,2.10
2022-08-05T17:24:33.893Z,2.20
2022-08-05T17:27:11.102Z,2.20
2022-08-05T17:29:42.780Z,2.30
2022-08-05T17:32:21.768Z,2.10
2022-08-05T17:34:58.359Z,2.30
2022-08-05T17:37:41.700Z,2.40
2022-08-05T17:40:22.886Z,2.40
2022-08-05T17:42:54.959Z,2.30
2022-08-05T17:45:38.107Z,2.60
2022-08-05T17:48:10.846Z,2.50
2022-08-05T17:50:42.963Z,2.20
2022-08-05T17:53:14.512Z,2.30
2022-08-05T17:55:51.720Z,2.50
2022-08-05T17:58:32.471Z,2.60
2022-08-05T18:01:08.195Z,2.50
2022-08-05T18:03:59.622Z,2.20
2022-08-05T18:06:39.208Z,2.80
2022-08-05T18:09:15.416Z,2.80
2022-08-05T18:11:52.160Z,2.60
2022-08-05T18:14:24.311Z,2.80
2022-08-05T18:16:58.811Z,2.50
2022-08-05T18:19:31.966Z,2.50
2022-08-05T18:22:07.192Z,2.80
2022-08-05T18:27:23.456Z,2.40
2022-08-05T18:29:55.132Z,2.70
2022-08-05T18:32:28.448Z,2.20
2022-08-05T18:35:01.316Z,2.40
2022-08-05T18:37:34.381Z,2.30
2022-08-05T18:40:33.811Z,2.70
2022-08-05T18:43:16.447Z,2.60
2022-08-05T18:45:49.026Z,2.60
2022-08-05T18:48:41.789Z,2.50
2022-08-05T18:52:05.934Z,2.50
2022-08-05T18:54:31.967Z,2.40
2022-08-05T18:57:03.957Z,2.30
2022-08-05T18:59:43.089Z,2.40
2022-08-05T19:02:41.256Z,2.50
2022-08-05T19:06:11.821Z,2.40
2022-08-05T19:08:34.229Z,2.20
2022-08-05T19:13:49.215Z,2.50
2022-08-05T19:16:36.942Z,2.40
2022-08-05T19:19:32.096Z,2.40
2022-08-05T19:22:08.257Z,2.40
2022-08-05T19:24:56.104Z,2.20
2022-08-05T19:27:30.572Z,2.40
2022-08-05T19:30:04.046Z,2.40
2022-08-05T19:32:35.769Z,2.30
2022-08-05T19:35:09.950Z,2.30
2022-08-05T19:38:06.852Z,2.20
2022-08-05T19:40:40.004Z,2.60
2022-08-05T19:43:31.210Z,2.20
2022-08-05T19:46:29.741Z,2.30
2022-08-05T19:49:03.992Z,2.60
2022-08-05T19:52:05.555Z,2.50
2022-08-05T19:54:50.498Z,2.40
2022-08-05T19:57:49.118Z,2.40
2022-08-05T20:00:16.555Z,2.60
2022-08-05T20:02:55.282Z,2.50
2022-08-05T20:05:50.333Z,2.40
2022-08-05T20:08:32.523Z,2.80
2022-08-05T20:11:04.611Z,2.60
2022-08-05T20:13:58.378Z,3.40
2022-08-05T20:16:36.062Z,3.10
2022-08-05T20:19:14.642Z,3.10
2022-08-05T20:21:51.110Z,3.10
2022-08-05T20:24:24.946Z,2.90
2022-08-05T20:27:00.311Z,2.90
2022-08-05T20:29:52.298Z,2.50
2022-08-05T20:32:30.435Z,2.40
2022-08-05T20:35:05.030Z,2.90
2022-08-05T20:38:06.705Z,3.30
2022-08-05T20:40:32.861Z,2.70
2022-08-05T20:43:07.908Z,2.30
2022-08-05T20:45:56.562Z,2.80
2022-08-05T20:48:32.043Z,3.10
2022-08-05T20:51:08.059Z,3.20
2022-08-05T20:53:40.926Z,2.60
2022-08-05T20:56:18.365Z,3.10
2022-08-05T20:59:13.961Z,3.20
2022-08-05T21:01:52.260Z,3.00
2022-08-05T21:04:28.885Z,3.10
2022-08-05T21:07:01.415Z,3.20
2022-08-05T21:09:38.425Z,2.80
2022-08-05T21:13:08.897Z,2.70
2022-08-05T21:15:36.544Z,3.20
2022-08-05T21:18:14.627Z,3.30
2022-08-05T21:21:06.782Z,3.20
2022-08-05T21:23:39.087Z,3.10
2022-08-05T21:26:15.036Z,3.40
2022-08-05T21:28:51.149Z,3.00
2022-08-05T21:31:41.617Z,3.00
2022-08-05T21:36:53.143Z,2.90
2022-08-05T21:39:26.753Z,2.70
2022-08-05T21:42:02.018Z,3.20
2022-08-05T21:44:36.505Z,2.80
2022-08-05T21:47:17.476Z,3.00
2022-08-05T21:50:10.265Z,3.10
2022-08-05T21:52:59.060Z,3.60
2022-08-05T21:56:01.497Z,3.20
2022-08-05T21:58:30.889Z,3.60
2022-08-05T22:01:04.908Z,3.40
2022-08-05T22:03:59.791Z,2.90
2022-08-05T22:06:50.954Z,3.00
2022-08-05T22:09:45.809Z,2.90
2022-08-05T22:12:26.413Z,2.90
2022-08-05T22:15:00.894Z,3.30
2022-08-05T22:17:35.325Z,2.90
2022-08-05T22:20:40.819Z,2.90
2022-08-05T22:24:02.539Z,3.20
2022-08-05T22:28:10.656Z,3.20
2022-08-05T22:30:37.702Z,3.10
2022-08-05T22:33:58.113Z,3.40
2022-08-05T22:36:43.932Z,2.80
2022-08-05T22:39:55.010Z,3.30
2022-08-05T22:42:57.797Z,2.80
2022-08-05T22:45:35.003Z,3.00
2022-08-05T22:48:29.152Z,3.10
2022-08-05T22:51:23.220Z,3.20
2022-08-05T22:54:36.227Z,3.80
2022-08-05T22:57:49.125Z,3.60
2022-08-05T23:00:41.137Z,3.10
2022-08-05T23:03:57.976Z,3.40
2022-08-05T23:06:39.643Z,3.70
2022-08-05T23:10:01.185Z,4.10
2022-08-05T23:13:14.002Z,3.70
2022-08-05T23:15:59.354Z,3.60
2022-08-05T23:18:36.976Z,3.70
2022-08-05T23:21:10.400Z,3.20
2022-08-05T23:23:47.872Z,3.40
2022-08-05T23:26:28.520Z,3.80
2022-08-05T23:29:00.192Z,4.20
2022-08-05T23:32:08.677Z,3.70
2022-08-05T23:35:05.615Z,3.50
2022-08-05T23:38:19.526Z,3.30
2022-08-05T23:41:16.582Z,2.90
2022-08-05T23:44:04.626Z,2.80
2022-08-05T23:46:39.356Z,2.70
2022-08-05T23:49:35.603Z,3.20
2022-08-05T23:52:49.442Z,3.00
2022-08-05T23:56:02.382Z,2.80
2022-08-05T23:59:08.848Z,3.20
